sensor_id;sensor_type;location;lat;lon;timestamp;pressure;altitude;pressure_sealevel;temperature;humidity
29315;BME280;16320;53.954;9.506;2023-09-08T00:01:10;102075.56;;;18.10;100.00
29315;BME280;16320;53.954;9.506;2023-09-08T00:04:14;102080.22;;;18.07;100.00
29315;BME280;16320;53.954;9.506;2023-09-08T00:07:20;102084.97;;;18.02;100.00
29315;BME280;16320;53.954;9.506;2023-09-08T00:10:24;102082.59;;;17.97;100.00
29315;BME280;16320;53.954;9.506;2023-09-08T00:13:29;102088.84;;;17.96;100.00
29315;BME280;16320;53.954;9.506;2023-09-08T00:16:33;102084.88;;;17.89;100.00
29315;BME280;16320;53.954;9.506;2023-09-08T00:19:37;102091.03;;;17.89;100.00
29315;BME280;16320;53.954;9.506;2023-09-08T00:22:42;102092.22;;;17.84;100.00
29315;BME280;16320;53.954;9.506;2023-09-08T00:25:49;102099.44;;;17.82;100.00
29315;BME280;16320;53.954;9.506;2023-09-08T00:28:54;102094.31;;;17.79;100.00
29315;BME280;16320;53.954;9.506;2023-09-08T00:31:58;102087.38;;;17.76;100.00
29315;BME280;16320;53.954;9.506;2023-09-08T00:35:06;102073.03;;;17.79;100.00
29315;BME280;16320;53.954;9.506;2023-09-08T00:38:10;102081.50;;;17.71;100.00
29315;BME280;16320;53.954;9.506;2023-09-08T00:41:15;102080.63;;;17.70;100.00
29315;BME280;16320;53.954;9.506;2023-09-08T00:44:19;102082.34;;;17.71;100.00
29315;BME280;16320;53.954;9.506;2023-09-08T00:47:24;102082.72;;;17.65;100.00
29315;BME280;16320;53.954;9.506;2023-09-08T00:50:29;102078.16;;;17.67;100.00
29315;BME280;16320;53.954;9.506;2023-09-08T00:53:33;102080.81;;;17.67;100.00
29315;BME280;16320;53.954;9.506;2023-09-08T00:56:38;102070.38;;;17.64;100.00
29315;BME280;16320;53.954;9.506;2023-09-08T00:59:43;102066.94;;;17.62;100.00
29315;BME280;16320;53.954;9.506;2023-09-08T01:02:48;102058.03;;;17.63;100.00
29315;BME280;16320;53.954;9.506;2023-09-08T01:05:53;102052.91;;;17.60;100.00
29315;BME280;16320;53.954;9.506;2023-09-08T01:08:59;102046.06;;;17.56;100.00
29315;BME280;16320;53.954;9.506;2023-09-08T01:12:06;102042.84;;;17.51;100.00
29315;BME280;16320;53.954;9.506;2023-09-08T01:15:11;102023.22;;;17.53;100.00
29315;BME280;16320;53.954;9.506;2023-09-08T01:18:16;102024.06;;;17.54;100.00
29315;BME280;16320;53.954;9.506;2023-09-08T01:28:17;102024.50;;;17.46;100.00
29315;BME280;16320;53.954;9.506;2023-09-08T01:31:22;102021.38;;;17.39;100.00
29315;BME280;16320;53.954;9.506;2023-09-08T01:34:27;102015.97;;;17.41;100.00
29315;BME280;16320;53.954;9.506;2023-09-08T01:37:32;102016.81;;;17.42;100.00
29315;BME280;16320;53.954;9.506;2023-09-08T01:40:36;102013.41;;;17.39;100.00
29315;BME280;16320;53.954;9.506;2023-09-08T01:43:41;102011.50;;;17.42;100.00
29315;BME280;16320;53.954;9.506;2023-09-08T01:46:45;102010.19;;;17.34;100.00
29315;BME280;16320;53.954;9.506;2023-09-08T01:49:50;102006.75;;;17.32;100.00
29315;BME280;16320;53.954;9.506;2023-09-08T01:52:54;102011.41;;;17.29;100.00
29315;BME280;16320;53.954;9.506;2023-09-08T01:55:59;102006.84;;;17.31;100.00
29315;BME280;16320;53.954;9.506;2023-09-08T01:59:03;102004.47;;;17.26;100.00
29315;BME280;16320;53.954;9.506;2023-09-08T02:02:09;102002.56;;;17.28;100.00
29315;BME280;16320;53.954;9.506;2023-09-08T02:05:14;102005.22;;;17.28;100.00
29315;BME280;16320;53.954;9.506;2023-09-08T02:08:19;102005.31;;;17.27;100.00
29315;BME280;16320;53.954;9.506;2023-09-08T02:11:23;101997.81;;;17.19;100.00
29315;BME280;16320;53.954;9.506;2023-09-08T02:14:27;101990.03;;;17.16;100.00
29315;BME280;16320;53.954;9.506;2023-09-08T02:17:32;101987.47;;;17.14;100.00
29315;BME280;16320;53.954;9.506;2023-09-08T02:20:37;101984.16;;;17.11;100.00
29315;BME280;16320;53.954;9.506;2023-09-08T02:23:41;101979.41;;;17.16;100.00
29315;BME280;16320;53.954;9.506;2023-09-08T02:26:46;101987.31;;;17.17;100.00
29315;BME280;16320;53.954;9.506;2023-09-08T02:29:51;101984.72;;;17.16;100.00
29315;BME280;16320;53.954;9.506;2023-09-08T02:32:55;101986.69;;;17.12;100.00
29315;BME280;16320;53.954;9.506;2023-09-08T02:36:05;101981.50;;;17.11;100.00
29315;BME280;16320;53.954;9.506;2023-09-08T02:39:09;101971.81;;;17.10;100.00
29315;BME280;16320;53.954;9.506;2023-09-08T02:42:15;101971.25;;;17.05;100.00
29315;BME280;16320;53.954;9.506;2023-09-08T02:45:20;101971.06;;;17.08;100.00
29315;BME280;16320;53.954;9.506;2023-09-08T02:48:25;101976.19;;;17.11;100.00
29315;BME280;16320;53.954;9.506;2023-09-08T02:51:29;101966.88;;;17.04;100.00
29315;BME280;16320;53.954;9.506;2023-09-08T02:54:33;101974.84;;;17.04;100.00
29315;BME280;16320;53.954;9.506;2023-09-08T02:57:39;101970.38;;;17.04;100.00
29315;BME280;16320;53.954;9.506;2023-09-08T03:00:43;101966.09;;;17.01;100.00
29315;BME280;16320;53.954;9.506;2023-09-08T03:03:48;101975.19;;;16.97;100.00
29315;BME280;16320;53.954;9.506;2023-09-08T03:06:53;101964.00;;;16.92;100.00
29315;BME280;16320;53.954;9.506;2023-09-08T03:09:58;101958.88;;;16.89;100.00
29315;BME280;16320;53.954;9.506;2023-09-08T03:13:03;101957.25;;;16.87;100.00
29315;BME280;16320;53.954;9.506;2023-09-08T03:16:08;101958.00;;;16.89;100.00
29315;BME280;16320;53.954;9.506;2023-09-08T03:19:14;101948.56;;;16.83;100.00
29315;BME280;16320;53.954;9.506;2023-09-08T03:22:18;101949.53;;;16.82;100.00
29315;BME280;16320;53.954;9.506;2023-09-08T03:25:23;101946.13;;;16.80;100.00
29315;BME280;16320;53.954;9.506;2023-09-08T03:28:27;101946.13;;;16.80;100.00
29315;BME280;16320;53.954;9.506;2023-09-08T03:31:32;101940.22;;;16.75;100.00
29315;BME280;16320;53.954;9.506;2023-09-08T03:34:37;101936.88;;;16.71;100.00
29315;BME280;16320;53.954;9.506;2023-09-08T03:37:44;101928.06;;;16.71;100.00
29315;BME280;16320;53.954;9.506;2023-09-08T03:40:49;101927.13;;;16.72;100.00
29315;BME280;16320;53.954;9.506;2023-09-08T03:43:53;101926.53;;;16.66;100.00
29315;BME280;16320;53.954;9.506;2023-09-08T03:46:57;101918.41;;;16.70;100.00
29315;BME280;16320;53.954;9.506;2023-09-08T03:50:05;101914.06;;;16.69;100.00
29315;BME280;16320;53.954;9.506;2023-09-08T03:53:10;101912.91;;;16.73;100.00
29315;BME280;16320;53.954;9.506;2023-09-08T03:56:15;101897.34;;;16.66;100.00
29315;BME280;16320;53.954;9.506;2023-09-08T03:59:20;101890.53;;;16.62;100.00
29315;BME280;16320;53.954;9.506;2023-09-08T04:02:25;101896.94;;;16.58;100.00
29315;BME280;16320;53.954;9.506;2023-09-08T04:05:30;101890.72;;;16.59;100.00
29315;BME280;16320;53.954;9.506;2023-09-08T04:08:34;101892.63;;;16.57;100.00
29315;BME280;16320;53.954;9.506;2023-09-08T04:11:39;101890.03;;;16.56;100.00
29315;BME280;16320;53.954;9.506;2023-09-08T04:14:43;101896.19;;;16.56;100.00
29315;BME280;16320;53.954;9.506;2023-09-08T04:17:48;101903.31;;;16.56;100.00
29315;BME280;16320;53.954;9.506;2023-09-08T04:20:52;101905.47;;;16.49;100.00
29315;BME280;16320;53.954;9.506;2023-09-08T04:23:57;101906.41;;;16.48;100.00
29315;BME280;16320;53.954;9.506;2023-09-08T04:27:01;101899.38;;;16.47;100.00
29315;BME280;16320;53.954;9.506;2023-09-08T04:30:06;101896.91;;;16.44;100.00
29315;BME280;16320;53.954;9.506;2023-09-08T04:33:11;101883.81;;;16.41;100.00
29315;BME280;16320;53.954;9.506;2023-09-08T04:36:17;101878.72;;;16.38;100.00
29315;BME280;16320;53.954;9.506;2023-09-08T04:39:22;101878.09;;;16.33;100.00
29315;BME280;16320;53.954;9.506;2023-09-08T04:42:27;101867.50;;;16.33;100.00
29315;BME280;16320;53.954;9.506;2023-09-08T04:45:31;101864.09;;;16.31;100.00
29315;BME280;16320;53.954;9.506;2023-09-08T04:48:36;101867.00;;;16.26;100.00
29315;BME280;16320;53.954;9.506;2023-09-08T04:51:44;101877.25;;;16.32;100.00
29315;BME280;16320;53.954;9.506;2023-09-08T04:54:49;101870.88;;;16.20;100.00
29315;BME280;16320;53.954;9.506;2023-09-08T04:57:53;101881.47;;;16.20;100.00
29315;BME280;16320;53.954;9.506;2023-09-08T05:00:58;101874.38;;;16.21;100.00
29315;BME280;16320;53.954;9.506;2023-09-08T05:04:03;101884.78;;;16.24;100.00
29315;BME280;16320;53.954;9.506;2023-09-08T05:07:08;101886.53;;;16.25;100.00
29315;BME280;16320;53.954;9.506;2023-09-08T05:10:14;101889.94;;;16.27;100.00
29315;BME280;16320;53.954;9.506;2023-09-08T05:13:18;101896.25;;;16.24;100.00
29315;BME280;16320;53.954;9.506;2023-09-08T05:16:34;101897.13;;;16.25;100.00
29315;BME280;16320;53.954;9.506;2023-09-08T05:19:50;101889.59;;;16.17;100.00
29315;BME280;16320;53.954;9.506;2023-09-08T05:22:54;101891.13;;;16.21;100.00
29315;BME280;16320;53.954;9.506;2023-09-08T05:26:00;101880.00;;;16.15;100.00
29315;BME280;16320;53.954;9.506;2023-09-08T05:29:04;101887.88;;;16.16;100.00
29315;BME280;16320;53.954;9.506;2023-09-08T05:32:09;101884.97;;;16.21;100.00
29315;BME280;16320;53.954;9.506;2023-09-08T05:35:13;101878.91;;;16.19;100.00
29315;BME280;16320;53.954;9.506;2023-09-08T05:38:18;101883.16;;;16.21;100.00
29315;BME280;16320;53.954;9.506;2023-09-08T05:41:23;101876.00;;;16.23;100.00
29315;BME280;16320;53.954;9.506;2023-09-08T05:44:27;101871.47;;;16.25;100.00
29315;BME280;16320;53.954;9.506;2023-09-08T05:47:32;101870.44;;;16.28;100.00
29315;BME280;16320;53.954;9.506;2023-09-08T05:50:36;101869.22;;;16.34;100.00
29315;BME280;16320;53.954;9.506;2023-09-08T05:53:41;101865.63;;;16.35;100.00
29315;BME280;16320;53.954;9.506;2023-09-08T05:56:45;101878.50;;;16.41;100.00
29315;BME280;16320;53.954;9.506;2023-09-08T05:59:50;101882.22;;;16.38;100.00
29315;BME280;16320;53.954;9.506;2023-09-08T06:02:55;101874.34;;;16.37;100.00
29315;BME280;16320;53.954;9.506;2023-09-08T06:06:00;101878.34;;;16.44;100.00
29315;BME280;16320;53.954;9.506;2023-09-08T06:09:05;101878.16;;;16.47;100.00
29315;BME280;16320;53.954;9.506;2023-09-08T06:12:11;101877.22;;;16.48;100.00
29315;BME280;16320;53.954;9.506;2023-09-08T06:15:17;101885.94;;;16.50;100.00
29315;BME280;16320;53.954;9.506;2023-09-08T06:18:21;101878.66;;;16.54;100.00
29315;BME280;16320;53.954;9.506;2023-09-08T06:21:25;101881.31;;;16.54;100.00
29315;BME280;16320;53.954;9.506;2023-09-08T06:24:30;101881.72;;;16.62;100.00
29315;BME280;16320;53.954;9.506;2023-09-08T06:27:34;101883.34;;;16.64;100.00
29315;BME280;16320;53.954;9.506;2023-09-08T06:30:39;101894.53;;;16.70;100.00
29315;BME280;16320;53.954;9.506;2023-09-08T06:33:45;101895.50;;;16.69;100.00
29315;BME280;16320;53.954;9.506;2023-09-08T06:36:50;101896.56;;;16.80;100.00
29315;BME280;16320;53.954;9.506;2023-09-08T06:39:55;101903.47;;;16.83;100.00
29315;BME280;16320;53.954;9.506;2023-09-08T06:42:59;101906.19;;;16.97;100.00
29315;BME280;16320;53.954;9.506;2023-09-08T06:46:07;101904.09;;;17.02;100.00
29315;BME280;16320;53.954;9.506;2023-09-08T06:49:11;101899.31;;;17.09;100.00
29315;BME280;16320;53.954;9.506;2023-09-08T06:52:17;101894.28;;;17.19;100.00
29315;BME280;16320;53.954;9.506;2023-09-08T06:55:22;101878.91;;;17.24;100.00
29315;BME280;16320;53.954;9.506;2023-09-08T06:58:27;101881.09;;;17.32;100.00
29315;BME280;16320;53.954;9.506;2023-09-08T07:01:31;101894.06;;;17.36;100.00
29315;BME280;16320;53.954;9.506;2023-09-08T07:04:36;101893.91;;;17.39;100.00
29315;BME280;16320;53.954;9.506;2023-09-08T07:07:40;101886.38;;;17.46;100.00
29315;BME280;16320;53.954;9.506;2023-09-08T07:10:52;101892.16;;;17.53;100.00
29315;BME280;16320;53.954;9.506;2023-09-08T07:13:58;101899.75;;;17.59;100.00
29315;BME280;16320;53.954;9.506;2023-09-08T07:17:02;101890.28;;;17.69;100.00
29315;BME280;16320;53.954;9.506;2023-09-08T07:20:08;101893.31;;;17.78;100.00
29315;BME280;16320;53.954;9.506;2023-09-08T07:23:13;101899.28;;;17.81;100.00
29315;BME280;16320;53.954;9.506;2023-09-08T07:26:17;101907.91;;;17.85;100.00
29315;BME280;16320;53.954;9.506;2023-09-08T07:29:22;101914.16;;;17.98;100.00
29315;BME280;16320;53.954;9.506;2023-09-08T07:32:27;101915.69;;;18.02;100.00
29315;BME280;16320;53.954;9.506;2023-09-08T07:35:32;101903.28;;;18.16;100.00
29315;BME280;16320;53.954;9.506;2023-09-08T07:38:36;101900.78;;;18.27;100.00
29315;BME280;16320;53.954;9.506;2023-09-08T07:41:41;101901.53;;;18.29;100.00
29315;BME280;16320;53.954;9.506;2023-09-08T07:44:45;101890.09;;;18.41;100.00
29315;BME280;16320;53.954;9.506;2023-09-08T07:47:50;101894.03;;;18.48;100.00
29315;BME280;16320;53.954;9.506;2023-09-08T07:50:54;101896.41;;;18.53;100.00
29315;BME280;16320;53.954;9.506;2023-09-08T07:53:59;101898.44;;;18.62;100.00
29315;BME280;16320;53.954;9.506;2023-09-08T07:57:03;101905.16;;;18.68;100.00
29315;BME280;16320;53.954;9.506;2023-09-08T08:00:09;101901.13;;;18.75;100.00
29315;BME280;16320;53.954;9.506;2023-09-08T08:03:16;101894.25;;;18.86;100.00
29315;BME280;16320;53.954;9.506;2023-09-08T08:06:20;101902.97;;;18.88;100.00
29315;BME280;16320;53.954;9.506;2023-09-08T08:09:25;101911.97;;;18.99;100.00
29315;BME280;16320;53.954;9.506;2023-09-08T08:12:29;101909.94;;;19.03;100.00
29315;BME280;16320;53.954;9.506;2023-09-08T08:15:41;101895.00;;;19.13;100.00
29315;BME280;16320;53.954;9.506;2023-09-08T08:18:47;101882.88;;;19.22;100.00
29315;BME280;16320;53.954;9.506;2023-09-08T08:21:51;101893.97;;;19.29;100.00
29315;BME280;16320;53.954;9.506;2023-09-08T08:24:55;101890.84;;;19.35;100.00
29315;BME280;16320;53.954;9.506;2023-09-08T08:28:00;101888.25;;;19.46;100.00
29315;BME280;16320;53.954;9.506;2023-09-08T08:31:06;101887.63;;;19.55;100.00
29315;BME280;16320;53.954;9.506;2023-09-08T08:34:10;101884.53;;;19.62;100.00
29315;BME280;16320;53.954;9.506;2023-09-08T08:37:14;101865.66;;;19.65;100.00
29315;BME280;16320;53.954;9.506;2023-09-08T08:40:19;101862.34;;;19.74;100.00
29315;BME280;16320;53.954;9.506;2023-09-08T08:43:23;101859.63;;;19.87;100.00
29315;BME280;16320;53.954;9.506;2023-09-08T08:46:29;101846.34;;;19.98;100.00
29315;BME280;16320;53.954;9.506;2023-09-08T08:49:34;101836.06;;;20.05;100.00
29315;BME280;16320;53.954;9.506;2023-09-08T08:52:40;101823.09;;;20.24;100.00
29315;BME280;16320;53.954;9.506;2023-09-08T08:55:45;101828.81;;;20.31;100.00
29315;BME280;16320;53.954;9.506;2023-09-08T08:58:50;101822.53;;;20.43;100.00
29315;BME280;16320;53.954;9.506;2023-09-08T09:01:56;101809.56;;;20.50;100.00
29315;BME280;16320;53.954;9.506;2023-09-08T09:05:02;101822.22;;;20.59;100.00
29315;BME280;16320;53.954;9.506;2023-09-08T09:08:07;101804.56;;;20.81;100.00
29315;BME280;16320;53.954;9.506;2023-09-08T09:11:14;101804.44;;;20.82;100.00
29315;BME280;16320;53.954;9.506;2023-09-08T09:14:19;101816.97;;;20.93;100.00
29315;BME280;16320;53.954;9.506;2023-09-08T09:17:24;101816.38;;;21.01;100.00
29315;BME280;16320;53.954;9.506;2023-09-08T09:20:28;101838.34;;;21.05;100.00
29315;BME280;16320;53.954;9.506;2023-09-08T09:23:34;101837.22;;;21.18;100.00
29315;BME280;16320;53.954;9.506;2023-09-08T09:26:39;101820.59;;;21.26;100.00
29315;BME280;16320;53.954;9.506;2023-09-08T09:29:49;101807.81;;;21.41;100.00
29315;BME280;16320;53.954;9.506;2023-09-08T09:33:04;101799.31;;;21.47;100.00
29315;BME280;16320;53.954;9.506;2023-09-08T09:36:09;101800.28;;;21.57;100.00
29315;BME280;16320;53.954;9.506;2023-09-08T09:39:25;101789.47;;;21.59;100.00
29315;BME280;16320;53.954;9.506;2023-09-08T09:42:30;101814.50;;;21.69;100.00
29315;BME280;16320;53.954;9.506;2023-09-08T09:45:36;101816.78;;;21.74;100.00
29315;BME280;16320;53.954;9.506;2023-09-08T09:48:41;101777.69;;;21.94;100.00
29315;BME280;16320;53.954;9.506;2023-09-08T09:51:49;101770.06;;;22.10;100.00
29315;BME280;16320;53.954;9.506;2023-09-08T09:54:58;101723.94;;;22.18;100.00
29315;BME280;16320;53.954;9.506;2023-09-08T09:58:05;101717.94;;;22.26;100.00
29315;BME280;16320;53.954;9.506;2023-09-08T10:01:11;101741.38;;;22.34;100.00
29315;BME280;16320;53.954;9.506;2023-09-08T10:04:15;101706.63;;;22.43;100.00
29315;BME280;16320;53.954;9.506;2023-09-08T10:07:20;101711.66;;;22.58;100.00
29315;BME280;16320;53.954;9.506;2023-09-08T10:10:27;101685.56;;;22.60;100.00
29315;BME280;16320;53.954;9.506;2023-09-08T10:13:41;101667.91;;;22.78;100.00
29315;BME280;16320;53.954;9.506;2023-09-08T10:16:50;101710.22;;;22.84;100.00
29315;BME280;16320;53.954;9.506;2023-09-08T10:20:01;101699.41;;;22.96;100.00
29315;BME280;16320;53.954;9.506;2023-09-08T10:23:36;101698.41;;;22.97;100.00
29315;BME280;16320;53.954;9.506;2023-09-08T10:26:44;101673.66;;;23.14;100.00
29315;BME280;16320;53.954;9.506;2023-09-08T10:29:51;101652.34;;;23.23;100.00
29315;BME280;16320;53.954;9.506;2023-09-08T10:32:57;101708.94;;;23.39;100.00
29315;BME280;16320;53.954;9.506;2023-09-08T10:36:03;101724.47;;;23.45;100.00
29315;BME280;16320;53.954;9.506;2023-09-08T10:39:28;101707.44;;;23.66;100.00
29315;BME280;16320;53.954;9.506;2023-09-08T10:42:34;101668.59;;;23.89;100.00
29315;BME280;16320;53.954;9.506;2023-09-08T10:45:48;101679.84;;;24.12;100.00
29315;BME280;16320;53.954;9.506;2023-09-08T10:48:54;101672.63;;;24.23;100.00
29315;BME280;16320;53.954;9.506;2023-09-08T10:52:12;101671.66;;;24.14;100.00
29315;BME280;16320;53.954;9.506;2023-09-08T10:55:16;101655.81;;;24.11;100.00
29315;BME280;16320;53.954;9.506;2023-09-08T10:58:32;101667.44;;;24.02;100.00
29315;BME280;16320;53.954;9.506;2023-09-08T11:01:38;101675.66;;;24.00;100.00
29315;BME280;16320;53.954;9.506;2023-09-08T11:04:43;101690.88;;;24.00;100.00
29315;BME280;16320;53.954;9.506;2023-09-08T11:07:48;101707.84;;;23.81;100.00
29315;BME280;16320;53.954;9.506;2023-09-08T11:10:59;101734.41;;;23.84;100.00
29315;BME280;16320;53.954;9.506;2023-09-08T11:14:04;101679.88;;;23.83;100.00
29315;BME280;16320;53.954;9.506;2023-09-08T11:17:09;101689.50;;;23.96;100.00
29315;BME280;16320;53.954;9.506;2023-09-08T11:20:13;101719.16;;;23.94;100.00
29315;BME280;16320;53.954;9.506;2023-09-08T11:23:18;101701.94;;;23.97;100.00
29315;BME280;16320;53.954;9.506;2023-09-08T11:26:24;101689.06;;;23.90;100.00
29315;BME280;16320;53.954;9.506;2023-09-08T11:29:29;101687.81;;;23.85;100.00
29315;BME280;16320;53.954;9.506;2023-09-08T11:32:34;101673.81;;;23.91;100.00
29315;BME280;16320;53.954;9.506;2023-09-08T11:35:39;101676.94;;;23.86;100.00
29315;BME280;16320;53.954;9.506;2023-09-08T11:38:44;101664.66;;;23.84;100.00
29315;BME280;16320;53.954;9.506;2023-09-08T11:41:49;101676.75;;;23.98;100.00
29315;BME280;16320;53.954;9.506;2023-09-08T11:44:56;101677.47;;;23.90;100.00
29315;BME280;16320;53.954;9.506;2023-09-08T11:48:02;101673.69;;;23.92;100.00
29315;BME280;16320;53.954;9.506;2023-09-08T11:51:07;101656.72;;;24.02;100.00
29315;BME280;16320;53.954;9.506;2023-09-08T11:54:13;101654.00;;;24.11;100.00
29315;BME280;16320;53.954;9.506;2023-09-08T11:57:18;101668.97;;;24.14;100.00
29315;BME280;16320;53.954;9.506;2023-09-08T12:00:23;101655.25;;;24.17;100.00
29315;BME280;16320;53.954;9.506;2023-09-08T12:03:29;101658.78;;;24.27;100.00
29315;BME280;16320;53.954;9.506;2023-09-08T12:06:34;101614.72;;;24.48;100.00
29315;BME280;16320;53.954;9.506;2023-09-08T12:09:39;101602.22;;;24.66;100.00
29315;BME280;16320;53.954;9.506;2023-09-08T12:12:53;101612.75;;;24.78;100.00
29315;BME280;16320;53.954;9.506;2023-09-08T12:15:58;101590.72;;;24.92;100.00
29315;BME280;16320;53.954;9.506;2023-09-08T12:19:03;101581.38;;;24.96;100.00
29315;BME280;16320;53.954;9.506;2023-09-08T12:22:07;101584.88;;;24.79;100.00
29315;BME280;16320;53.954;9.506;2023-09-08T12:25:13;101557.41;;;24.85;100.00
29315;BME280;16320;53.954;9.506;2023-09-08T12:28:19;101541.81;;;25.07;100.00
29315;BME280;16320;53.954;9.506;2023-09-08T12:31:25;101553.13;;;25.28;100.00
29315;BME280;16320;53.954;9.506;2023-09-08T12:34:29;101531.28;;;25.31;100.00
29315;BME280;16320;53.954;9.506;2023-09-08T12:37:34;101542.28;;;25.38;100.00
29315;BME280;16320;53.954;9.506;2023-09-08T12:40:40;101559.78;;;25.24;100.00
29315;BME280;16320;53.954;9.506;2023-09-08T12:43:46;101558.00;;;25.15;100.00
29315;BME280;16320;53.954;9.506;2023-09-08T12:46:50;101574.44;;;25.12;100.00
29315;BME280;16320;53.954;9.506;2023-09-08T12:49:55;101541.72;;;25.34;100.00
29315;BME280;16320;53.954;9.506;2023-09-08T12:53:00;101524.66;;;25.44;100.00
29315;BME280;16320;53.954;9.506;2023-09-08T12:56:05;101526.34;;;25.45;100.00
29315;BME280;16320;53.954;9.506;2023-09-08T12:59:09;101515.34;;;25.56;100.00
29315;BME280;16320;53.954;9.506;2023-09-08T13:02:13;101515.38;;;25.64;100.00
29315;BME280;16320;53.954;9.506;2023-09-08T13:05:18;101502.88;;;25.89;100.00
29315;BME280;16320;53.954;9.506;2023-09-08T13:08:22;101487.84;;;25.70;100.00
29315;BME280;16320;53.954;9.506;2023-09-08T13:11:27;101500.50;;;25.52;100.00
29315;BME280;16320;53.954;9.506;2023-09-08T13:14:32;101520.66;;;25.48;100.00
29315;BME280;16320;53.954;9.506;2023-09-08T13:17:37;101498.84;;;25.51;100.00
29315;BME280;16320;53.954;9.506;2023-09-08T13:20:41;101487.41;;;25.57;100.00
29315;BME280;16320;53.954;9.506;2023-09-08T13:23:46;101486.06;;;25.53;100.00
29315;BME280;16320;53.954;9.506;2023-09-08T13:26:50;101485.09;;;25.62;100.00
29315;BME280;16320;53.954;9.506;2023-09-08T13:29:54;101471.44;;;25.55;100.00
29315;BME280;16320;53.954;9.506;2023-09-08T13:33:11;101469.31;;;25.59;100.00
29315;BME280;16320;53.954;9.506;2023-09-08T13:36:16;101457.28;;;25.80;100.00
29315;BME280;16320;53.954;9.506;2023-09-08T13:39:20;101457.56;;;25.68;100.00
29315;BME280;16320;53.954;9.506;2023-09-08T13:42:24;101460.94;;;25.70;100.00
29315;BME280;16320;53.954;9.506;2023-09-08T13:45:29;101470.84;;;25.70;100.00
29315;BME280;16320;53.954;9.506;2023-09-08T13:48:34;101467.41;;;25.51;100.00
29315;BME280;16320;53.954;9.506;2023-09-08T13:51:40;101475.22;;;25.36;100.00
29315;BME280;16320;53.954;9.506;2023-09-08T13:54:46;101493.31;;;25.34;100.00
29315;BME280;16320;53.954;9.506;2023-09-08T13:58:02;101460.31;;;25.24;100.00
29315;BME280;16320;53.954;9.506;2023-09-08T14:01:07;101449.09;;;25.55;100.00
29315;BME280;16320;53.954;9.506;2023-09-08T14:04:16;101457.88;;;25.65;100.00
29315;BME280;16320;53.954;9.506;2023-09-08T14:07:22;101461.19;;;25.51;100.00
29315;BME280;16320;53.954;9.506;2023-09-08T14:10:36;101451.69;;;25.38;100.00
29315;BME280;16320;53.954;9.506;2023-09-08T14:13:54;101465.97;;;25.39;100.00
29315;BME280;16320;53.954;9.506;2023-09-08T14:16:59;101461.72;;;25.28;100.00
29315;BME280;16320;53.954;9.506;2023-09-08T14:20:04;101450.50;;;25.15;100.00
29315;BME280;16320;53.954;9.506;2023-09-08T14:23:10;101475.91;;;25.20;100.00
29315;BME280;16320;53.954;9.506;2023-09-08T14:26:15;101462.94;;;25.16;100.00
29315;BME280;16320;53.954;9.506;2023-09-08T14:29:21;101479.69;;;25.10;100.00
29315;BME280;16320;53.954;9.506;2023-09-08T14:32:27;101481.47;;;25.01;100.00
29315;BME280;16320;53.954;9.506;2023-09-08T14:35:31;101472.50;;;25.10;100.00
29315;BME280;16320;53.954;9.506;2023-09-08T14:38:36;101440.72;;;25.32;100.00
29315;BME280;16320;53.954;9.506;2023-09-08T14:41:40;101425.28;;;25.68;100.00
29315;BME280;16320;53.954;9.506;2023-09-08T14:44:44;101421.91;;;25.66;100.00
29315;BME280;16320;53.954;9.506;2023-09-08T14:47:49;101430.47;;;25.62;100.00
29315;BME280;16320;53.954;9.506;2023-09-08T14:50:54;101429.19;;;25.39;100.00
29315;BME280;16320;53.954;9.506;2023-09-08T14:53:59;101442.63;;;25.39;100.00
29315;BME280;16320;53.954;9.506;2023-09-08T14:57:04;101448.16;;;25.38;100.00
29315;BME280;16320;53.954;9.506;2023-09-08T15:00:09;101438.72;;;25.34;100.00
29315;BME280;16320;53.954;9.506;2023-09-08T15:03:14;101461.28;;;25.23;100.00
29315;BME280;16320;53.954;9.506;2023-09-08T15:06:18;101458.88;;;25.12;100.00
29315;BME280;16320;53.954;9.506;2023-09-08T15:09:23;101459.88;;;25.11;100.00
29315;BME280;16320;53.954;9.506;2023-09-08T15:12:27;101476.56;;;24.96;100.00
29315;BME280;16320;53.954;9.506;2023-09-08T15:15:32;101487.47;;;24.77;100.00
29315;BME280;16320;53.954;9.506;2023-09-08T15:18:36;101500.16;;;24.66;100.00
29315;BME280;16320;53.954;9.506;2023-09-08T15:21:41;101500.75;;;24.60;100.00
29315;BME280;16320;53.954;9.506;2023-09-08T15:24:45;101496.94;;;24.53;100.00
29315;BME280;16320;53.954;9.506;2023-09-08T15:27:49;101483.81;;;24.50;100.00
29315;BME280;16320;53.954;9.506;2023-09-08T15:30:54;101471.09;;;24.52;100.00
29315;BME280;16320;53.954;9.506;2023-09-08T15:33:59;101471.09;;;24.52;100.00
29315;BME280;16320;53.954;9.506;2023-09-08T15:37:04;101479.16;;;24.52;100.00
29315;BME280;16320;53.954;9.506;2023-09-08T15:40:09;101496.88;;;24.45;100.00
29315;BME280;16320;53.954;9.506;2023-09-08T15:43:18;101526.59;;;24.34;100.00
29315;BME280;16320;53.954;9.506;2023-09-08T15:46:23;101546.16;;;24.26;100.00
29315;BME280;16320;53.954;9.506;2023-09-08T15:49:27;101576.72;;;24.15;100.00
29315;BME280;16320;53.954;9.506;2023-09-08T15:52:32;101610.94;;;24.13;100.00
29315;BME280;16320;53.954;9.506;2023-09-08T15:55:37;101620.00;;;24.02;100.00
29315;BME280;16320;53.954;9.506;2023-09-08T15:58:41;101629.03;;;24.01;100.00
29315;BME280;16320;53.954;9.506;2023-09-08T16:01:46;101638.09;;;23.90;100.00
29315;BME280;16320;53.954;9.506;2023-09-08T16:04:50;101628.63;;;23.86;100.00